ePrivacy and GPDR Cookie Consent by Cookie Consent
EmailTwitter


Observations de surface / Europe / LIRF (16242)

Régions: Québec | Canada | États-Unis | Europe | France | UK | Ailleurs
Station
Affichage
Infos & localisation pour LIRF (16242) | Aide pour décoder les METARs

Observations prises le 2021-10-22 à 23H20 UTC (LIRF)

Etat du ciel: quelques nuages.

Température: 15.0 Celsius

Point de rosée: 14.0 Celsius

Humidité relative: 94%

Vents: Est-nord-est à 7 km/h ou 4 noeuds.

Pression au niveau moyen de la mer: 101.80 kilopascals.

Visibilité horizontale: 6.21 milles terrestres ou 9.94 kilomètres.

Observation METAR:

LIRF 222320Z 07004KT 9999 FEW020 15/14 Q1018 NOSIG=